Sardis City, Alabama
Current Conditions -  °F | °C
As of 3:55 AM on Sunday 23 Nov 2014 (Local Time) from K8A0 Reporting Station
Overcast Overcast  
Wind Chill: 10°   Ceiling: 3700
Heat Index: 10°   Visibility: 10mi
Dew Point:   Wind: 12mph
Humidity: 87%   Direction: 100°E
Pressure: 29.97"   Gusts: 20mph
Location:  34.1534°N, 86.1537°W
Report Text: K8A0 230955Z AUTO 10010G17KT 10SM SCT017 BKN037 OVC120 10/08 A2997 RMK AO2
Loading
Personal Weather Stations






























Interactive Weather Map New forecast layout! Learn more

10-Day Weather Forecast

Advertisements
Track Severe Weather on mobile